sensor_id;sensor_type;location;lat;lon;timestamp;temperature;humidity
14873;DHT22;7528;48.576;19.122;2022-10-30T00:03:39;16.40;78.10
14873;DHT22;7528;48.576;19.122;2022-10-30T00:08:41;16.30;78.50
14873;DHT22;7528;48.576;19.122;2022-10-30T00:13:44;16.40;78.60
14873;DHT22;7528;48.576;19.122;2022-10-30T00:18:48;16.40;78.60
14873;DHT22;7528;48.576;19.122;2022-10-30T00:23:51;16.30;78.70
14873;DHT22;7528;48.576;19.122;2022-10-30T00:28:55;16.40;78.70
14873;DHT22;7528;48.576;19.122;2022-10-30T00:33:59;16.40;78.60
14873;DHT22;7528;48.576;19.122;2022-10-30T00:39:03;16.40;78.70
14873;DHT22;7528;48.576;19.122;2022-10-30T00:44:44;16.40;78.70
14873;DHT22;7528;48.576;19.122;2022-10-30T00:49:53;16.40;78.70
14873;DHT22;7528;48.576;19.122;2022-10-30T00:55:01;16.50;78.50
14873;DHT22;7528;48.576;19.122;2022-10-30T01:00:07;16.40;78.30
14873;DHT22;7528;48.576;19.122;2022-10-30T01:05:14;16.30;78.80
14873;DHT22;7528;48.576;19.122;2022-10-30T01:10:18;16.30;79.00
14873;DHT22;7528;48.576;19.122;2022-10-30T01:15:25;16.30;78.90
14873;DHT22;7528;48.576;19.122;2022-10-30T01:20:44;16.30;78.90
14873;DHT22;7528;48.576;19.122;2022-10-30T01:25:57;16.40;78.80
14873;DHT22;7528;48.576;19.122;2022-10-30T01:31:19;16.40;78.90
14873;DHT22;7528;48.576;19.122;2022-10-30T01:36:35;16.20;79.30
14873;DHT22;7528;48.576;19.122;2022-10-30T01:41:39;16.20;79.70
14873;DHT22;7528;48.576;19.122;2022-10-30T01:46:51;16.10;80.10
14873;DHT22;7528;48.576;19.122;2022-10-30T01:52:05;16.20;80.30
14873;DHT22;7528;48.576;19.122;2022-10-30T01:57:20;16.10;80.50
14873;DHT22;7528;48.576;19.122;2022-10-30T02:02:26;16.10;80.60
14873;DHT22;7528;48.576;19.122;2022-10-30T02:07:31;16.00;80.90
14873;DHT22;7528;48.576;19.122;2022-10-30T02:12:33;16.00;81.50
14873;DHT22;7528;48.576;19.122;2022-10-30T02:17:36;16.00;81.10
14873;DHT22;7528;48.576;19.122;2022-10-30T02:22:42;16.00;81.20
14873;DHT22;7528;48.576;19.122;2022-10-30T02:27:44;16.10;81.30
14873;DHT22;7528;48.576;19.122;2022-10-30T02:32:47;16.10;81.10
14873;DHT22;7528;48.576;19.122;2022-10-30T02:37:50;16.10;81.00
14873;DHT22;7528;48.576;19.122;2022-10-30T02:42:54;16.10;80.50
14873;DHT22;7528;48.576;19.122;2022-10-30T02:47:58;16.20;80.30
14873;DHT22;7528;48.576;19.122;2022-10-30T02:53:03;16.10;80.60
14873;DHT22;7528;48.576;19.122;2022-10-30T02:58:05;16.10;80.40
14873;DHT22;7528;48.576;19.122;2022-10-30T03:03:08;16.00;80.70
14873;DHT22;7528;48.576;19.122;2022-10-30T03:08:11;16.10;80.50
14873;DHT22;7528;48.576;19.122;2022-10-30T03:13:14;16.10;80.40
14873;DHT22;7528;48.576;19.122;2022-10-30T03:18:16;15.90;80.10
14873;DHT22;7528;48.576;19.122;2022-10-30T03:23:23;15.90;80.40
14873;DHT22;7528;48.576;19.122;2022-10-30T03:28:27;16.00;80.50
14873;DHT22;7528;48.576;19.122;2022-10-30T03:33:30;16.00;80.40
14873;DHT22;7528;48.576;19.122;2022-10-30T03:38:34;15.90;80.70
14873;DHT22;7528;48.576;19.122;2022-10-30T03:43:37;15.80;80.40
14873;DHT22;7528;48.576;19.122;2022-10-30T03:48:40;15.80;80.80
14873;DHT22;7528;48.576;19.122;2022-10-30T03:53:45;15.90;80.40
14873;DHT22;7528;48.576;19.122;2022-10-30T03:58:48;16.00;80.30
14873;DHT22;7528;48.576;19.122;2022-10-30T04:03:54;16.00;80.00
14873;DHT22;7528;48.576;19.122;2022-10-30T04:09:00;15.90;79.80
14873;DHT22;7528;48.576;19.122;2022-10-30T04:14:14;15.90;80.80
14873;DHT22;7528;48.576;19.122;2022-10-30T04:19:17;15.90;80.10
14873;DHT22;7528;48.576;19.122;2022-10-30T04:24:21;15.80;79.80
14873;DHT22;7528;48.576;19.122;2022-10-30T04:29:28;15.80;79.90
14873;DHT22;7528;48.576;19.122;2022-10-30T04:34:30;15.90;79.70
14873;DHT22;7528;48.576;19.122;2022-10-30T04:39:34;15.80;79.40
14873;DHT22;7528;48.576;19.122;2022-10-30T04:44:47;15.70;79.40
14873;DHT22;7528;48.576;19.122;2022-10-30T04:49:49;15.70;79.30
14873;DHT22;7528;48.576;19.122;2022-10-30T04:54:53;15.60;79.80
14873;DHT22;7528;48.576;19.122;2022-10-30T04:59:56;15.70;79.30
14873;DHT22;7528;48.576;19.122;2022-10-30T05:04:59;15.70;79.10
14873;DHT22;7528;48.576;19.122;2022-10-30T05:10:03;15.70;78.90
14873;DHT22;7528;48.576;19.122;2022-10-30T05:15:07;15.70;79.10
14873;DHT22;7528;48.576;19.122;2022-10-30T05:20:10;15.70;79.30
14873;DHT22;7528;48.576;19.122;2022-10-30T05:25:15;15.70;79.60
14873;DHT22;7528;48.576;19.122;2022-10-30T05:30:18;15.70;79.50
14873;DHT22;7528;48.576;19.122;2022-10-30T05:35:20;15.60;79.90
14873;DHT22;7528;48.576;19.122;2022-10-30T05:40:24;15.60;79.60
14873;DHT22;7528;48.576;19.122;2022-10-30T05:45:27;15.50;80.50
14873;DHT22;7528;48.576;19.122;2022-10-30T05:50:33;15.50;80.40
14873;DHT22;7528;48.576;19.122;2022-10-30T05:56:06;15.50;80.80
14873;DHT22;7528;48.576;19.122;2022-10-30T06:01:10;15.60;80.60
14873;DHT22;7528;48.576;19.122;2022-10-30T06:06:17;15.50;81.40
14873;DHT22;7528;48.576;19.122;2022-10-30T06:11:21;15.50;81.40
14873;DHT22;7528;48.576;19.122;2022-10-30T06:16:28;15.50;81.50
14873;DHT22;7528;48.576;19.122;2022-10-30T06:22:00;15.50;82.30
14873;DHT22;7528;48.576;19.122;2022-10-30T06:27:21;15.50;82.50
14873;DHT22;7528;48.576;19.122;2022-10-30T06:32:23;15.50;83.30
14873;DHT22;7528;48.576;19.122;2022-10-30T06:37:27;15.50;82.40
14873;DHT22;7528;48.576;19.122;2022-10-30T06:42:40;15.50;82.00
14873;DHT22;7528;48.576;19.122;2022-10-30T06:47:45;15.60;82.20
14873;DHT22;7528;48.576;19.122;2022-10-30T06:52:49;15.60;82.10
14873;DHT22;7528;48.576;19.122;2022-10-30T06:57:56;15.60;82.10
14873;DHT22;7528;48.576;19.122;2022-10-30T07:03:18;15.50;82.50
14873;DHT22;7528;48.576;19.122;2022-10-30T07:08:20;15.50;82.90
14873;DHT22;7528;48.576;19.122;2022-10-30T07:13:27;15.50;82.30
14873;DHT22;7528;48.576;19.122;2022-10-30T07:18:57;15.30;83.20
14873;DHT22;7528;48.576;19.122;2022-10-30T07:23:59;15.30;83.70
14873;DHT22;7528;48.576;19.122;2022-10-30T07:29:08;15.30;83.90
14873;DHT22;7528;48.576;19.122;2022-10-30T07:34:17;15.40;83.80
14873;DHT22;7528;48.576;19.122;2022-10-30T07:39:36;15.50;83.60
14873;DHT22;7528;48.576;19.122;2022-10-30T07:44:53;15.60;83.30
14873;DHT22;7528;48.576;19.122;2022-10-30T07:50:12;15.60;83.20
14873;DHT22;7528;48.576;19.122;2022-10-30T07:55:14;15.60;83.60
14873;DHT22;7528;48.576;19.122;2022-10-30T08:00:18;15.70;83.10
14873;DHT22;7528;48.576;19.122;2022-10-30T08:05:31;15.70;82.40
14873;DHT22;7528;48.576;19.122;2022-10-30T08:10:43;15.60;83.10
14873;DHT22;7528;48.576;19.122;2022-10-30T08:15:47;15.70;82.70
14873;DHT22;7528;48.576;19.122;2022-10-30T08:20:50;15.60;83.60
14873;DHT22;7528;48.576;19.122;2022-10-30T08:25:56;15.60;83.40
14873;DHT22;7528;48.576;19.122;2022-10-30T08:31:02;15.60;83.60
14873;DHT22;7528;48.576;19.122;2022-10-30T08:36:24;15.70;83.70
14873;DHT22;7528;48.576;19.122;2022-10-30T08:41:27;15.80;82.80
14873;DHT22;7528;48.576;19.122;2022-10-30T08:46:31;15.80;82.80
14873;DHT22;7528;48.576;19.122;2022-10-30T08:51:35;15.70;83.40
14873;DHT22;7528;48.576;19.122;2022-10-30T08:56:55;15.80;82.60
14873;DHT22;7528;48.576;19.122;2022-10-30T09:02:06;15.80;82.50
14873;DHT22;7528;48.576;19.122;2022-10-30T09:07:46;15.80;82.00
14873;DHT22;7528;48.576;19.122;2022-10-30T09:13:11;15.80;82.10
14873;DHT22;7528;48.576;19.122;2022-10-30T09:18:15;15.90;81.60
14873;DHT22;7528;48.576;19.122;2022-10-30T09:23:18;16.00;81.30
14873;DHT22;7528;48.576;19.122;2022-10-30T09:28:25;16.10;81.10
14873;DHT22;7528;48.576;19.122;2022-10-30T09:34:01;16.10;81.50
14873;DHT22;7528;48.576;19.122;2022-10-30T09:39:19;16.10;81.30
14873;DHT22;7528;48.576;19.122;2022-10-30T09:44:32;16.40;80.40
14873;DHT22;7528;48.576;19.122;2022-10-30T09:49:53;16.40;79.70
14873;DHT22;7528;48.576;19.122;2022-10-30T10:00:32;16.60;79.00
14873;DHT22;7528;48.576;19.122;2022-10-30T10:05:47;16.60;78.70
14873;DHT22;7528;48.576;19.122;2022-10-30T10:11:14;16.80;78.80
14873;DHT22;7528;48.576;19.122;2022-10-30T10:16:19;16.90;78.00
14873;DHT22;7528;48.576;19.122;2022-10-30T10:21:27;17.00;79.00
14873;DHT22;7528;48.576;19.122;2022-10-30T10:26:45;17.00;77.90
14873;DHT22;7528;48.576;19.122;2022-10-30T10:31:56;17.10;78.10
14873;DHT22;7528;48.576;19.122;2022-10-30T10:37:08;17.10;77.50
14873;DHT22;7528;48.576;19.122;2022-10-30T10:42:21;17.20;77.40
14873;DHT22;7528;48.576;19.122;2022-10-30T10:47:51;17.20;77.30
14873;DHT22;7528;48.576;19.122;2022-10-30T10:53:00;17.40;77.50
14873;DHT22;7528;48.576;19.122;2022-10-30T10:58:09;17.50;76.70
14873;DHT22;7528;48.576;19.122;2022-10-30T11:03:18;17.70;76.40
14873;DHT22;7528;48.576;19.122;2022-10-30T11:08:26;17.80;75.80
14873;DHT22;7528;48.576;19.122;2022-10-30T11:13:30;18.00;76.00
14873;DHT22;7528;48.576;19.122;2022-10-30T11:18:37;18.20;75.60
14873;DHT22;7528;48.576;19.122;2022-10-30T11:23:43;18.60;75.30
14873;DHT22;7528;48.576;19.122;2022-10-30T11:28:49;19.90;72.40
14873;DHT22;7528;48.576;19.122;2022-10-30T11:33:52;21.80;67.40
14873;DHT22;7528;48.576;19.122;2022-10-30T11:38:57;24.50;56.70
14873;DHT22;7528;48.576;19.122;2022-10-30T11:44:10;26.10;51.80
14873;DHT22;7528;48.576;19.122;2022-10-30T11:49:24;27.50;49.60
14873;DHT22;7528;48.576;19.122;2022-10-30T11:54:35;28.50;45.70
14873;DHT22;7528;48.576;19.122;2022-10-30T11:59:44;29.20;44.00
14873;DHT22;7528;48.576;19.122;2022-10-30T12:04:47;29.20;43.50
14873;DHT22;7528;48.576;19.122;2022-10-30T12:09:52;29.40;42.90
14873;DHT22;7528;48.576;19.122;2022-10-30T12:14:55;30.10;41.90
14873;DHT22;7528;48.576;19.122;2022-10-30T12:20:13;30.40;40.30
14873;DHT22;7528;48.576;19.122;2022-10-30T12:25:22;29.90;40.90
14873;DHT22;7528;48.576;19.122;2022-10-30T12:30:25;29.60;41.30
14873;DHT22;7528;48.576;19.122;2022-10-30T12:35:39;29.60;41.40
14873;DHT22;7528;48.576;19.122;2022-10-30T12:40:57;29.20;41.40
14873;DHT22;7528;48.576;19.122;2022-10-30T12:46:20;29.20;41.50
14873;DHT22;7528;48.576;19.122;2022-10-30T12:51:31;29.50;41.00
14873;DHT22;7528;48.576;19.122;2022-10-30T12:56:42;29.80;40.60
14873;DHT22;7528;48.576;19.122;2022-10-30T13:01:50;29.70;40.60
14873;DHT22;7528;48.576;19.122;2022-10-30T13:07:03;29.00;41.40
14873;DHT22;7528;48.576;19.122;2022-10-30T13:12:13;28.70;42.50
14873;DHT22;7528;48.576;19.122;2022-10-30T13:17:18;28.30;43.50
14873;DHT22;7528;48.576;19.122;2022-10-30T13:22:24;28.00;44.40
14873;DHT22;7528;48.576;19.122;2022-10-30T13:27:34;27.90;44.70
14873;DHT22;7528;48.576;19.122;2022-10-30T13:32:49;27.50;45.50
14873;DHT22;7528;48.576;19.122;2022-10-30T13:38:00;26.90;46.60
14873;DHT22;7528;48.576;19.122;2022-10-30T13:43:17;26.30;47.70
14873;DHT22;7528;48.576;19.122;2022-10-30T13:48:33;25.80;48.20
14873;DHT22;7528;48.576;19.122;2022-10-30T13:53:43;25.10;49.50
14873;DHT22;7528;48.576;19.122;2022-10-30T13:58:55;24.60;50.60
14873;DHT22;7528;48.576;19.122;2022-10-30T14:04:04;24.10;51.70
14873;DHT22;7528;48.576;19.122;2022-10-30T14:09:13;23.80;51.80
14873;DHT22;7528;48.576;19.122;2022-10-30T14:14:28;23.60;52.50
14873;DHT22;7528;48.576;19.122;2022-10-30T14:19:31;23.20;53.50
14873;DHT22;7528;48.576;19.122;2022-10-30T14:24:34;22.90;54.40
14873;DHT22;7528;48.576;19.122;2022-10-30T14:29:48;22.70;55.00
14873;DHT22;7528;48.576;19.122;2022-10-30T14:34:57;22.50;55.30
14873;DHT22;7528;48.576;19.122;2022-10-30T14:40:36;22.30;55.90
14873;DHT22;7528;48.576;19.122;2022-10-30T14:45:44;22.10;56.20
14873;DHT22;7528;48.576;19.122;2022-10-30T14:50:58;21.90;56.70
14873;DHT22;7528;48.576;19.122;2022-10-30T14:56:08;21.70;57.40
14873;DHT22;7528;48.576;19.122;2022-10-30T15:01:29;21.40;57.70
14873;DHT22;7528;48.576;19.122;2022-10-30T15:06:40;21.30;57.90
14873;DHT22;7528;48.576;19.122;2022-10-30T15:12:04;21.10;58.70
14873;DHT22;7528;48.576;19.122;2022-10-30T15:17:25;20.90;59.00
14873;DHT22;7528;48.576;19.122;2022-10-30T15:22:29;20.60;59.90
14873;DHT22;7528;48.576;19.122;2022-10-30T15:27:45;20.40;60.10
14873;DHT22;7528;48.576;19.122;2022-10-30T15:32:50;20.30;60.60
14873;DHT22;7528;48.576;19.122;2022-10-30T15:38:00;20.10;60.80
14873;DHT22;7528;48.576;19.122;2022-10-30T15:43:05;20.00;61.40
14873;DHT22;7528;48.576;19.122;2022-10-30T15:48:19;19.90;61.70
14873;DHT22;7528;48.576;19.122;2022-10-30T15:53:27;19.70;62.10
14873;DHT22;7528;48.576;19.122;2022-10-30T15:58:33;19.60;62.70
14873;DHT22;7528;48.576;19.122;2022-10-30T16:03:39;19.40;62.60
14873;DHT22;7528;48.576;19.122;2022-10-30T16:08:42;19.20;63.30
14873;DHT22;7528;48.576;19.122;2022-10-30T16:13:45;19.00;63.70
14873;DHT22;7528;48.576;19.122;2022-10-30T16:18:50;18.80;64.40
14873;DHT22;7528;48.576;19.122;2022-10-30T16:23:56;18.70;64.70
14873;DHT22;7528;48.576;19.122;2022-10-30T16:29:07;18.60;65.00
14873;DHT22;7528;48.576;19.122;2022-10-30T16:34:23;18.40;65.30
14873;DHT22;7528;48.576;19.122;2022-10-30T16:39:27;18.30;65.80
14873;DHT22;7528;48.576;19.122;2022-10-30T16:44:31;18.10;65.50
14873;DHT22;7528;48.576;19.122;2022-10-30T16:49:35;18.00;65.90
14873;DHT22;7528;48.576;19.122;2022-10-30T16:54:40;18.00;66.60
14873;DHT22;7528;48.576;19.122;2022-10-30T16:59:45;17.80;66.60
14873;DHT22;7528;48.576;19.122;2022-10-30T17:04:52;17.70;67.00
14873;DHT22;7528;48.576;19.122;2022-10-30T17:09:56;17.60;67.10
14873;DHT22;7528;48.576;19.122;2022-10-30T17:15:08;17.50;67.20
14873;DHT22;7528;48.576;19.122;2022-10-30T17:20:25;17.30;67.50
14873;DHT22;7528;48.576;19.122;2022-10-30T17:25:33;17.20;67.90
14873;DHT22;7528;48.576;19.122;2022-10-30T17:30:38;17.20;68.30
14873;DHT22;7528;48.576;19.122;2022-10-30T17:35:42;16.90;68.50
14873;DHT22;7528;48.576;19.122;2022-10-30T17:40:44;16.90;68.70
14873;DHT22;7528;48.576;19.122;2022-10-30T17:45:47;16.80;68.80
14873;DHT22;7528;48.576;19.122;2022-10-30T17:50:51;16.70;68.80
14873;DHT22;7528;48.576;19.122;2022-10-30T17:55:58;16.70;69.20
14873;DHT22;7528;48.576;19.122;2022-10-30T18:01:03;16.50;69.40
14873;DHT22;7528;48.576;19.122;2022-10-30T18:06:09;16.50;69.10
14873;DHT22;7528;48.576;19.122;2022-10-30T18:11:17;16.40;69.30
14873;DHT22;7528;48.576;19.122;2022-10-30T18:16:21;16.20;69.50
14873;DHT22;7528;48.576;19.122;2022-10-30T18:21:25;16.10;69.90
14873;DHT22;7528;48.576;19.122;2022-10-30T18:26:28;16.00;70.20
14873;DHT22;7528;48.576;19.122;2022-10-30T18:31:31;15.90;70.30
14873;DHT22;7528;48.576;19.122;2022-10-30T18:36:35;15.90;70.40
14873;DHT22;7528;48.576;19.122;2022-10-30T18:41:40;15.80;70.60
14873;DHT22;7528;48.576;19.122;2022-10-30T18:46:44;15.80;70.70
14873;DHT22;7528;48.576;19.122;2022-10-30T18:51:48;15.70;70.60
14873;DHT22;7528;48.576;19.122;2022-10-30T18:56:51;15.60;70.70
14873;DHT22;7528;48.576;19.122;2022-10-30T19:01:54;15.50;70.90
14873;DHT22;7528;48.576;19.122;2022-10-30T19:06:58;15.40;71.20
14873;DHT22;7528;48.576;19.122;2022-10-30T19:12:00;15.50;71.50
14873;DHT22;7528;48.576;19.122;2022-10-30T19:17:03;15.50;71.40
14873;DHT22;7528;48.576;19.122;2022-10-30T19:22:09;15.50;71.00
14873;DHT22;7528;48.576;19.122;2022-10-30T19:27:14;15.50;71.70
14873;DHT22;7528;48.576;19.122;2022-10-30T19:32:17;15.70;71.70
14873;DHT22;7528;48.576;19.122;2022-10-30T19:37:21;15.70;72.00
14873;DHT22;7528;48.576;19.122;2022-10-30T19:42:23;15.60;72.40
14873;DHT22;7528;48.576;19.122;2022-10-30T19:47:26;15.50;73.20
14873;DHT22;7528;48.576;19.122;2022-10-30T19:52:30;15.40;72.90
14873;DHT22;7528;48.576;19.122;2022-10-30T19:57:33;15.40;73.20
14873;DHT22;7528;48.576;19.122;2022-10-30T20:02:35;15.40;73.80
14873;DHT22;7528;48.576;19.122;2022-10-30T20:07:40;15.40;74.10
14873;DHT22;7528;48.576;19.122;2022-10-30T20:12:42;15.50;74.20
14873;DHT22;7528;48.576;19.122;2022-10-30T20:17:45;15.40;74.60
14873;DHT22;7528;48.576;19.122;2022-10-30T20:22:50;15.50;74.30
14873;DHT22;7528;48.576;19.122;2022-10-30T20:27:59;15.40;75.00
14873;DHT22;7528;48.576;19.122;2022-10-30T20:33:02;15.30;75.30
14873;DHT22;7528;48.576;19.122;2022-10-30T20:38:08;15.30;76.30
14873;DHT22;7528;48.576;19.122;2022-10-30T20:43:16;15.20;76.20
14873;DHT22;7528;48.576;19.122;2022-10-30T20:48:20;15.30;75.60
14873;DHT22;7528;48.576;19.122;2022-10-30T20:53:24;15.30;75.50
14873;DHT22;7528;48.576;19.122;2022-10-30T20:58:27;15.30;75.60
14873;DHT22;7528;48.576;19.122;2022-10-30T21:03:30;15.20;75.10
14873;DHT22;7528;48.576;19.122;2022-10-30T21:08:35;15.30;75.60
14873;DHT22;7528;48.576;19.122;2022-10-30T21:13:37;15.20;75.40
14873;DHT22;7528;48.576;19.122;2022-10-30T21:18:40;15.10;76.00
14873;DHT22;7528;48.576;19.122;2022-10-30T21:23:44;15.10;76.20
14873;DHT22;7528;48.576;19.122;2022-10-30T21:28:47;15.20;76.70
14873;DHT22;7528;48.576;19.122;2022-10-30T21:33:49;15.20;77.00
14873;DHT22;7528;48.576;19.122;2022-10-30T21:38:53;15.10;78.30
14873;DHT22;7528;48.576;19.122;2022-10-30T21:43:57;15.20;77.70
14873;DHT22;7528;48.576;19.122;2022-10-30T21:49:05;15.10;78.50
14873;DHT22;7528;48.576;19.122;2022-10-30T21:54:09;15.00;78.50
14873;DHT22;7528;48.576;19.122;2022-10-30T21:59:12;15.00;79.00
14873;DHT22;7528;48.576;19.122;2022-10-30T22:04:15;15.10;79.00
14873;DHT22;7528;48.576;19.122;2022-10-30T22:09:20;15.00;79.40
14873;DHT22;7528;48.576;19.122;2022-10-30T22:14:22;15.10;79.90
14873;DHT22;7528;48.576;19.122;2022-10-30T22:19:27;15.00;79.80
14873;DHT22;7528;48.576;19.122;2022-10-30T22:24:31;15.00;80.50
14873;DHT22;7528;48.576;19.122;2022-10-30T22:29:33;14.90;80.40
14873;DHT22;7528;48.576;19.122;2022-10-30T22:34:36;14.90;81.10
14873;DHT22;7528;48.576;19.122;2022-10-30T22:39:40;14.90;81.10
14873;DHT22;7528;48.576;19.122;2022-10-30T22:44:43;15.00;81.30
14873;DHT22;7528;48.576;19.122;2022-10-30T22:49:45;15.00;81.10
14873;DHT22;7528;48.576;19.122;2022-10-30T22:54:49;15.10;80.90
14873;DHT22;7528;48.576;19.122;2022-10-30T22:59:52;14.90;81.50
14873;DHT22;7528;48.576;19.122;2022-10-30T23:04:55;14.90;82.00
14873;DHT22;7528;48.576;19.122;2022-10-30T23:09:58;14.90;81.90
14873;DHT22;7528;48.576;19.122;2022-10-30T23:15:02;14.90;82.20
14873;DHT22;7528;48.576;19.122;2022-10-30T23:20:06;14.90;82.00
14873;DHT22;7528;48.576;19.122;2022-10-30T23:25:11;14.80;81.90
14873;DHT22;7528;48.576;19.122;2022-10-30T23:30:14;14.90;82.20
14873;DHT22;7528;48.576;19.122;2022-10-30T23:35:16;14.80;82.00
14873;DHT22;7528;48.576;19.122;2022-10-30T23:40:20;14.80;82.10
14873;DHT22;7528;48.576;19.122;2022-10-30T23:45:23;14.90;81.70
14873;DHT22;7528;48.576;19.122;2022-10-30T23:50:26;14.90;80.80
14873;DHT22;7528;48.576;19.122;2022-10-30T23:55:30;15.00;80.90
